createdAt,value
2017-09-17T00:00:00.457Z,7.39
2017-09-17T00:00:04.704Z,7.39
2017-09-17T00:00:08.768Z,7.4
2017-09-17T00:00:12.455Z,7.39
2017-09-17T00:00:16.764Z,7.39
2017-09-17T00:00:20.833Z,7.39
2017-09-17T00:00:24.767Z,7.39
2017-09-17T00:00:29.096Z,7.4
2017-09-17T00:00:32.908Z,7.4
2017-09-17T00:00:36.966Z,7.4
2017-09-17T00:00:41.405Z,7.4
2017-09-17T00:00:45.348Z,7.41
2017-09-17T00:00:49.672Z,7.4
2017-09-17T00:00:53.731Z,7.4
2017-09-17T00:00:58.033Z,7.4
2017-09-17T00:01:02.220Z,7.4
2017-09-17T00:01:06.531Z,7.4
2017-09-17T00:01:10.843Z,7.4
2017-09-17T00:01:14.905Z,7.4
2017-09-17T00:01:19.215Z,7.4
2017-09-17T00:01:23.552Z,7.4
2017-09-17T00:01:27.629Z,7.4
2017-09-17T00:01:31.690Z,7.4
2017-09-17T00:01:35.499Z,7.4
2017-09-17T00:01:39.808Z,7.4
2017-09-17T00:01:43.742Z,7.4
2017-09-17T00:01:47.923Z,7.4
2017-09-17T00:01:52.350Z,7.4
2017-09-17T00:01:56.414Z,7.39
2017-09-17T00:02:00.724Z,7.4
2017-09-17T00:02:04.909Z,7.4
2017-09-17T00:02:08.848Z,7.4
2017-09-17T00:02:13.037Z,7.41
2017-09-17T00:02:17.098Z,7.4
2017-09-17T00:02:21.040Z,7.4
2017-09-17T00:02:25.347Z,7.4
2017-09-17T00:02:29.407Z,7.41
2017-09-17T00:02:33.213Z,7.4
2017-09-17T00:02:37.145Z,7.4
2017-09-17T00:02:41.330Z,7.4
2017-09-17T00:02:45.517Z,7.41
2017-09-17T00:02:49.724Z,7.4
2017-09-17T00:02:54.158Z,7.4
2017-09-17T00:02:58.476Z,7.41
2017-09-17T00:03:02.786Z,7.4
2017-09-17T00:03:07.129Z,7.4
2017-09-17T00:03:11.313Z,7.4
2017-09-17T00:03:15.248Z,7.41
2017-09-17T00:03:19.442Z,7.4
2017-09-17T00:03:23.649Z,7.4
2017-09-17T00:03:27.582Z,7.41
2017-09-17T00:03:31.518Z,7.4
2017-09-17T00:03:35.958Z,7.41
2017-09-17T00:03:40.177Z,7.4
2017-09-17T00:03:44.235Z,7.4
2017-09-17T00:03:48.548Z,7.41
2017-09-17T00:03:52.734Z,7.41
2017-09-17T00:03:56.923Z,7.4
2017-09-17T00:04:01.237Z,7.41
2017-09-17T00:04:05.727Z,7.4
2017-09-17T00:04:09.785Z,7.41
2017-09-17T00:04:14.126Z,7.41
2017-09-17T00:04:18.313Z,7.4
2017-09-17T00:04:22.370Z,7.4
2017-09-17T00:04:26.308Z,7.41
2017-09-17T00:04:30.369Z,7.4
2017-09-17T00:04:34.686Z,7.4
2017-09-17T00:04:38.747Z,7.4
2017-09-17T00:04:42.563Z,7.4
2017-09-17T00:04:46.500Z,7.41
2017-09-17T00:04:50.684Z,7.4
2017-09-17T00:04:54.748Z,7.41
2017-09-17T00:04:58.684Z,7.4
2017-09-17T00:05:02.870Z,7.4
2017-09-17T00:05:07.305Z,7.4
2017-09-17T00:05:11.613Z,7.41
2017-09-17T00:05:15.550Z,7.41
2017-09-17T00:05:19.614Z,7.4
2017-09-17T00:05:23.671Z,7.41
2017-09-17T00:05:27.735Z,7.4
2017-09-17T00:05:31.791Z,7.41
2017-09-17T00:05:35.851Z,7.41
2017-09-17T00:05:40.033Z,7.4
2017-09-17T00:05:44.219Z,7.41
2017-09-17T00:05:48.153Z,7.41
2017-09-17T00:05:52.471Z,7.4
2017-09-17T00:05:56.531Z,7.41
2017-09-17T00:06:00.467Z,7.41
2017-09-17T00:06:04.648Z,7.4
2017-09-17T00:06:08.717Z,7.41
2017-09-17T00:06:12.786Z,7.41
2017-09-17T00:06:16.727Z,7.42
2017-09-17T00:06:20.914Z,7.41
2017-09-17T00:06:24.980Z,7.42
2017-09-17T00:06:29.031Z,7.41
2017-09-17T00:06:33.340Z,7.41
2017-09-17T00:06:37.398Z,7.42
2017-09-17T00:06:41.588Z,7.41
2017-09-17T00:06:45.775Z,7.42
2017-09-17T00:06:50.218Z,7.41
2017-09-17T00:06:54.028Z,7.41
2017-09-17T00:06:57.970Z,7.41
2017-09-17T00:07:02.276Z,7.42
2017-09-17T00:07:06.212Z,7.41
2017-09-17T00:07:10.272Z,7.41
2017-09-17T00:07:14.462Z,7.41
2017-09-17T00:07:18.527Z,7.42
2017-09-17T00:07:22.465Z,7.42
2017-09-17T00:07:26.519Z,7.42
2017-09-17T00:07:30.459Z,7.42
2017-09-17T00:07:34.517Z,7.42
2017-09-17T00:07:38.578Z,7.42
2017-09-17T00:07:42.508Z,7.42
2017-09-17T00:07:46.564Z,7.42
2017-09-17T00:07:50.624Z,7.43
2017-09-17T00:07:54.812Z,7.41
2017-09-17T00:07:58.742Z,7.42
2017-09-17T00:08:02.797Z,7.42
2017-09-17T00:08:06.858Z,7.42
2017-09-17T00:08:10.670Z,7.42
2017-09-17T00:08:14.986Z,7.42
2017-09-17T00:08:19.046Z,7.43
2017-09-17T00:08:22.976Z,7.43
2017-09-17T00:08:27.035Z,7.43
2017-09-17T00:08:30.969Z,7.43
2017-09-17T00:08:35.030Z,7.43
2017-09-17T00:08:39.095Z,7.42
2017-09-17T00:08:43.410Z,7.43
2017-09-17T00:08:47.845Z,7.43
2017-09-17T00:08:51.909Z,7.43
2017-09-17T00:08:55.839Z,7.43
2017-09-17T00:09:00.020Z,7.44
2017-09-17T00:09:04.206Z,7.43
2017-09-17T00:09:08.526Z,7.44
2017-09-17T00:09:12.585Z,7.43
2017-09-17T00:09:16.650Z,7.44
2017-09-17T00:09:20.832Z,7.44
2017-09-17T00:09:24.768Z,7.44
2017-09-17T00:09:28.456Z,7.44
2017-09-17T00:09:32.269Z,7.43
2017-09-17T00:09:36.456Z,7.44
2017-09-17T00:09:40.523Z,7.44
2017-09-17T00:09:44.459Z,7.45
2017-09-17T00:09:48.644Z,7.44
2017-09-17T00:09:52.957Z,7.44
2017-09-17T00:09:57.142Z,7.45
2017-09-17T00:10:01.583Z,7.45
2017-09-17T00:10:05.651Z,7.45
2017-09-17T00:10:09.711Z,7.46
2017-09-17T00:10:13.897Z,7.45
2017-09-17T00:10:17.956Z,7.45
2017-09-17T00:10:21.771Z,7.46
2017-09-17T00:10:25.710Z,7.45
2017-09-17T00:10:29.778Z,7.45
2017-09-17T00:10:33.957Z,7.46
2017-09-17T00:10:38.141Z,7.46
2017-09-17T00:10:42.071Z,7.46
2017-09-17T00:10:46.382Z,7.46
2017-09-17T00:10:50.563Z,7.46
2017-09-17T00:10:54.627Z,7.47
2017-09-17T00:10:58.948Z,7.47
2017-09-17T00:11:03.262Z,7.47
2017-09-17T00:11:07.202Z,7.46
2017-09-17T00:11:11.530Z,7.47
2017-09-17T00:11:15.596Z,7.46
2017-09-17T00:11:19.533Z,7.47
2017-09-17T00:11:23.844Z,7.46
2017-09-17T00:11:28.162Z,7.47
2017-09-17T00:11:32.507Z,7.47
2017-09-17T00:11:36.812Z,7.47
2017-09-17T00:11:40.874Z,7.48
2017-09-17T00:11:45.055Z,7.47
2017-09-17T00:11:49.370Z,7.47
2017-09-17T00:11:53.559Z,7.48
2017-09-17T00:11:57.497Z,7.48
2017-09-17T00:12:01.686Z,7.48
2017-09-17T00:12:05.751Z,7.48
2017-09-17T00:12:09.936Z,7.48
2017-09-17T00:12:14.116Z,7.48
2017-09-17T00:12:18.313Z,7.47
2017-09-17T00:12:22.501Z,7.47
2017-09-17T00:12:26.685Z,7.47
2017-09-17T00:12:30.877Z,7.47
2017-09-17T00:12:34.936Z,7.47
2017-09-17T00:12:38.745Z,7.48
2017-09-17T00:12:42.803Z,7.47
2017-09-17T00:12:46.856Z,7.48
2017-09-17T00:12:51.038Z,7.48
2017-09-17T00:12:55.113Z,7.47
2017-09-17T00:12:58.925Z,7.48
2017-09-17T00:13:03.235Z,7.47
2017-09-17T00:13:07.674Z,7.48
2017-09-17T00:13:11.611Z,7.48
2017-09-17T00:13:15.547Z,7.47
2017-09-17T00:13:19.606Z,7.47
2017-09-17T00:13:23.545Z,7.48
2017-09-17T00:13:27.984Z,7.47
2017-09-17T00:13:32.293Z,7.47
2017-09-17T00:13:36.606Z,7.47
2017-09-17T00:13:40.546Z,7.48
2017-09-17T00:13:44.479Z,7.48
2017-09-17T00:13:48.789Z,7.48
2017-09-17T00:13:52.854Z,7.47
2017-09-17T00:13:57.044Z,7.47
2017-09-17T00:14:01.361Z,7.48
2017-09-17T00:14:05.418Z,7.47
2017-09-17T00:14:09.611Z,7.48
2017-09-17T00:14:13.550Z,7.48
2017-09-17T00:14:17.871Z,7.47
2017-09-17T00:14:21.800Z,7.46
2017-09-17T00:14:26.121Z,7.47
2017-09-17T00:14:30.055Z,7.46
2017-09-17T00:14:34.245Z,7.47
2017-09-17T00:14:38.342Z,7.47
2017-09-17T00:14:42.537Z,7.47
2017-09-17T00:14:46.598Z,7.47
2017-09-17T00:14:50.915Z,7.47
2017-09-17T00:14:54.844Z,7.47
2017-09-17T00:14:58.782Z,7.47
2017-09-17T00:15:03.268Z,7.46
2017-09-17T00:15:07.451Z,7.47
2017-09-17T00:15:11.260Z,7.47
2017-09-17T00:15:15.448Z,7.46
2017-09-17T00:15:19.382Z,7.46
2017-09-17T00:15:23.580Z,7.46
2017-09-17T00:15:27.895Z,7.46
2017-09-17T00:15:31.958Z,7.46
2017-09-17T00:15:35.889Z,7.46
2017-09-17T00:15:40.073Z,7.46
2017-09-17T00:15:44.127Z,7.45
2017-09-17T00:15:47.936Z,7.47
2017-09-17T00:15:51.747Z,7.46
2017-09-17T00:15:55.685Z,7.46
2017-09-17T00:15:59.624Z,7.46
2017-09-17T00:16:03.813Z,7.46
2017-09-17T00:16:08.195Z,7.45
2017-09-17T00:16:12.378Z,7.44
2017-09-17T00:16:16.694Z,7.45
2017-09-17T00:16:20.760Z,7.45
2017-09-17T00:16:24.941Z,7.45
2017-09-17T00:16:28.996Z,7.44
2017-09-17T00:16:33.221Z,7.44
2017-09-17T00:16:37.528Z,7.45
2017-09-17T00:16:41.960Z,7.45
2017-09-17T00:16:46.023Z,7.45
2017-09-17T00:16:49.723Z,7.43
2017-09-17T00:16:53.882Z,7.44
2017-09-17T00:16:57.813Z,7.44
2017-09-17T00:17:02.001Z,7.44
2017-09-17T00:17:05.807Z,7.44
2017-09-17T00:17:10.270Z,7.43
2017-09-17T00:17:14.699Z,7.43
2017-09-17T00:17:18.758Z,7.43
2017-09-17T00:17:22.571Z,7.44
2017-09-17T00:17:26.920Z,7.42
2017-09-17T00:17:31.356Z,7.43
2017-09-17T00:17:35.540Z,7.43
2017-09-17T00:17:39.477Z,7.43
2017-09-17T00:17:43.673Z,7.43
2017-09-17T00:17:47.736Z,7.41
2017-09-17T00:17:52.043Z,7.43
2017-09-17T00:17:56.360Z,7.42
2017-09-17T00:18:00.169Z,7.43
2017-09-17T00:18:04.792Z,7.42
2017-09-17T00:18:08.726Z,7.42
2017-09-17T00:18:12.661Z,7.42
2017-09-17T00:18:16.977Z,7.42
2017-09-17T00:18:21.041Z,7.41
2017-09-17T00:18:25.231Z,7.41
2017-09-17T00:18:29.167Z,7.41
2017-09-17T00:18:33.356Z,7.41
2017-09-17T00:18:37.294Z,7.41
2017-09-17T00:18:41.378Z,7.4
2017-09-17T00:18:45.312Z,7.41
2017-09-17T00:18:49.506Z,7.41
2017-09-17T00:18:53.439Z,7.41
2017-09-17T00:18:57.740Z,7.4
2017-09-17T00:19:01.920Z,7.41
2017-09-17T00:19:06.357Z,7.41
2017-09-17T00:19:10.803Z,7.41
2017-09-17T00:19:14.609Z,7.41
2017-09-17T00:19:18.794Z,7.41
2017-09-17T00:19:23.106Z,7.41
2017-09-17T00:19:27.326Z,7.4
2017-09-17T00:19:31.261Z,7.41
2017-09-17T00:19:35.315Z,7.4
2017-09-17T00:19:39.257Z,7.4
2017-09-17T00:19:43.567Z,7.4
2017-09-17T00:19:47.496Z,7.4
2017-09-17T00:19:51.434Z,7.4
2017-09-17T00:19:55.875Z,7.4
2017-09-17T00:20:00.077Z,7.4
2017-09-17T00:20:04.167Z,7.39
2017-09-17T00:20:08.106Z,7.4
2017-09-17T00:20:12.295Z,7.39
2017-09-17T00:20:16.355Z,7.39
2017-09-17T00:20:20.288Z,7.4
2017-09-17T00:20:24.478Z,7.39
2017-09-17T00:20:28.799Z,7.39
2017-09-17T00:20:32.733Z,7.4
2017-09-17T00:20:36.540Z,7.39
2017-09-17T00:20:40.719Z,7.39
2017-09-17T00:20:45.165Z,7.39
2017-09-17T00:20:49.486Z,7.39
2017-09-17T00:20:53.922Z,7.38
2017-09-17T00:20:58.102Z,7.39
2017-09-17T00:21:02.315Z,7.39
2017-09-17T00:21:06.246Z,7.39
2017-09-17T00:21:10.557Z,7.39
2017-09-17T00:21:14.742Z,7.39
2017-09-17T00:21:18.927Z,7.39
2017-09-17T00:21:22.868Z,7.38
2017-09-17T00:21:27.174Z,7.39
2017-09-17T00:21:31.110Z,7.39
2017-09-17T00:21:35.165Z,7.38
2017-09-17T00:21:39.348Z,7.39
2017-09-17T00:21:43.533Z,7.39
2017-09-17T00:21:47.593Z,7.39
2017-09-17T00:21:51.667Z,7.39
2017-09-17T00:21:55.741Z,7.39
2017-09-17T00:21:59.935Z,7.4
2017-09-17T00:22:04.268Z,7.39
2017-09-17T00:22:08.323Z,7.4
2017-09-17T00:22:12.504Z,7.39
2017-09-17T00:22:16.566Z,7.39
2017-09-17T00:22:20.505Z,7.39
2017-09-17T00:22:24.568Z,7.4
2017-09-17T00:22:28.884Z,7.4
2017-09-17T00:22:32.824Z,7.39
2017-09-17T00:22:36.881Z,7.4
2017-09-17T00:22:40.812Z,7.41
2017-09-17T00:22:44.747Z,7.4
2017-09-17T00:22:48.808Z,7.4
2017-09-17T00:22:52.740Z,7.4
2017-09-17T00:22:56.811Z,7.4
2017-09-17T00:23:00.751Z,7.4
2017-09-17T00:23:05.264Z,7.4
2017-09-17T00:23:09.195Z,7.4
2017-09-17T00:23:13.252Z,7.4
2017-09-17T00:23:17.311Z,7.4
2017-09-17T00:23:21.115Z,7.4
2017-09-17T00:23:25.168Z,7.4
2017-09-17T00:23:29.104Z,7.4
2017-09-17T00:23:33.290Z,7.4
2017-09-17T00:23:37.223Z,7.41
2017-09-17T00:23:41.418Z,7.41
2017-09-17T00:23:45.729Z,7.41
2017-09-17T00:23:49.791Z,7.41
2017-09-17T00:23:53.979Z,7.41
2017-09-17T00:23:58.159Z,7.4
2017-09-17T00:24:02.349Z,7.41
2017-09-17T00:24:06.411Z,7.41
2017-09-17T00:24:10.487Z,7.42
2017-09-17T00:24:14.541Z,7.41
2017-09-17T00:24:18.849Z,7.41
2017-09-17T00:24:22.902Z,7.41
2017-09-17T00:24:27.090Z,7.41
2017-09-17T00:24:31.152Z,7.42
2017-09-17T00:24:35.337Z,7.42
2017-09-17T00:24:39.282Z,7.42
2017-09-17T00:24:43.712Z,7.43
2017-09-17T00:24:47.892Z,7.43
2017-09-17T00:24:51.952Z,7.42
2017-09-17T00:24:56.268Z,7.43
2017-09-17T00:25:00.326Z,7.42
2017-09-17T00:25:04.739Z,7.43
2017-09-17T00:25:08.670Z,7.43
2017-09-17T00:25:12.980Z,7.42
2017-09-17T00:25:16.925Z,7.43
2017-09-17T00:25:20.989Z,7.44
2017-09-17T00:25:25.300Z,7.44
2017-09-17T00:25:29.107Z,7.43
2017-09-17T00:25:33.173Z,7.43
2017-09-17T00:25:37.360Z,7.43
2017-09-17T00:25:41.540Z,7.44
2017-09-17T00:25:45.476Z,7.44
2017-09-17T00:25:49.531Z,7.44
2017-09-17T00:25:53.591Z,7.45
2017-09-17T00:25:57.778Z,7.45
2017-09-17T00:26:01.722Z,7.45
2017-09-17T00:26:05.785Z,7.45
2017-09-17T00:26:09.973Z,7.45
2017-09-17T00:26:13.651Z,7.45
2017-09-17T00:26:17.838Z,7.45
2017-09-17T00:26:21.897Z,7.45
2017-09-17T00:26:26.089Z,7.45
2017-09-17T00:26:30.266Z,7.46
2017-09-17T00:26:34.456Z,7.45
2017-09-17T00:26:38.644Z,7.46
2017-09-17T00:26:42.831Z,7.47
2017-09-17T00:26:47.136Z,7.46
2017-09-17T00:26:51.206Z,7.45
2017-09-17T00:26:55.271Z,7.46
2017-09-17T00:26:59.328Z,7.46
2017-09-17T00:27:03.511Z,7.47
2017-09-17T00:27:07.462Z,7.46
2017-09-17T00:27:11.524Z,7.46
2017-09-17T00:27:15.335Z,7.47
2017-09-17T00:27:19.770Z,7.47
2017-09-17T00:27:23.576Z,7.47
2017-09-17T00:27:27.895Z,7.47
2017-09-17T00:27:31.957Z,7.48
2017-09-17T00:27:36.147Z,7.48
2017-09-17T00:27:40.325Z,7.47
2017-09-17T00:27:44.391Z,7.48
2017-09-17T00:27:48.453Z,7.48
2017-09-17T00:27:52.511Z,7.47
2017-09-17T00:27:56.691Z,7.48
2017-09-17T00:28:00.627Z,7.48
2017-09-17T00:28:05.164Z,7.47
2017-09-17T00:28:09.345Z,7.47
2017-09-17T00:28:13.533Z,7.48
2017-09-17T00:28:17.721Z,7.48
2017-09-17T00:28:21.908Z,7.48
2017-09-17T00:28:26.088Z,7.47
2017-09-17T00:28:30.273Z,7.48
2017-09-17T00:28:34.473Z,7.48
2017-09-17T00:28:38.535Z,7.49
2017-09-17T00:28:42.845Z,7.48
2017-09-17T00:28:46.660Z,7.48
2017-09-17T00:28:50.848Z,7.48
2017-09-17T00:28:54.787Z,7.49
2017-09-17T00:28:58.967Z,7.49
2017-09-17T00:29:03.155Z,7.49
2017-09-17T00:29:07.465Z,7.48
2017-09-17T00:29:11.280Z,7.48
2017-09-17T00:29:15.343Z,7.49
2017-09-17T00:29:19.398Z,7.49
2017-09-17T00:29:23.462Z,7.49
2017-09-17T00:29:27.268Z,7.49
2017-09-17T00:29:31.331Z,7.48
2017-09-17T00:29:35.268Z,7.49
2017-09-17T00:29:39.459Z,7.49
2017-09-17T00:29:43.517Z,7.49
2017-09-17T00:29:47.574Z,7.48
2017-09-17T00:29:51.386Z,7.49
2017-09-17T00:29:55.572Z,7.49
2017-09-17T00:29:59.506Z,7.48
2017-09-17T00:30:03.441Z,7.48
2017-09-17T00:30:07.244Z,7.49
2017-09-17T00:30:11.173Z,7.49
2017-09-17T00:30:15.485Z,7.49
2017-09-17T00:30:19.553Z,7.49
2017-09-17T00:30:23.866Z,7.49
2017-09-17T00:30:28.183Z,7.48
2017-09-17T00:30:32.276Z,7.49
2017-09-17T00:30:36.587Z,7.48
2017-09-17T00:30:40.521Z,7.49
2017-09-17T00:30:44.705Z,7.49
2017-09-17T00:30:48.775Z,7.48
2017-09-17T00:30:52.837Z,7.49
2017-09-17T00:30:56.902Z,7.48
2017-09-17T00:31:00.955Z,7.48
2017-09-17T00:31:05.169Z,7.48
2017-09-17T00:31:09.378Z,7.48
2017-09-17T00:31:13.439Z,7.48
2017-09-17T00:31:17.498Z,7.48
2017-09-17T00:31:21.813Z,7.48
2017-09-17T00:31:25.996Z,7.49
2017-09-17T00:31:30.180Z,7.48
2017-09-17T00:31:34.242Z,7.48
2017-09-17T00:31:38.302Z,7.49
2017-09-17T00:31:42.244Z,7.49
2017-09-17T00:31:46.053Z,7.49
2017-09-17T00:31:50.110Z,7.49
2017-09-17T00:31:54.169Z,7.48
2017-09-17T00:31:58.107Z,7.49
2017-09-17T00:32:02.494Z,7.49
2017-09-17T00:32:06.561Z,7.49
2017-09-17T00:32:10.751Z,7.48
2017-09-17T00:32:15.068Z,7.48
2017-09-17T00:32:19.384Z,7.48
2017-09-17T00:32:23.571Z,7.49
2017-09-17T00:32:27.893Z,7.49
2017-09-17T00:32:31.953Z,7.48
2017-09-17T00:32:35.892Z,7.48
2017-09-17T00:32:39.946Z,7.48
2017-09-17T00:32:44.006Z,7.49
2017-09-17T00:32:48.061Z,7.48
2017-09-17T00:32:52.365Z,7.49
2017-09-17T00:32:56.300Z,7.48
2017-09-17T00:33:00.489Z,7.48
2017-09-17T00:33:04.604Z,7.48
2017-09-17T00:33:08.798Z,7.5
2017-09-17T00:33:12.857Z,7.5
2017-09-17T00:33:17.045Z,7.5
2017-09-17T00:33:20.975Z,7.49
2017-09-17T00:33:24.909Z,7.49
2017-09-17T00:33:28.971Z,7.5
2017-09-17T00:33:33.154Z,7.49
2017-09-17T00:33:37.343Z,7.5
2017-09-17T00:33:41.404Z,7.5
2017-09-17T00:33:45.338Z,7.5
2017-09-17T00:33:49.400Z,7.5
2017-09-17T00:33:53.336Z,7.49
2017-09-17T00:33:57.274Z,7.5
2017-09-17T00:34:01.336Z,7.5
2017-09-17T00:34:05.790Z,7.5
2017-09-17T00:34:09.975Z,7.5
2017-09-17T00:34:13.783Z,7.5
2017-09-17T00:34:17.970Z,7.51
2017-09-17T00:34:22.155Z,7.5
2017-09-17T00:34:26.343Z,7.5
2017-09-17T00:34:30.781Z,7.51
2017-09-17T00:34:34.973Z,7.5
2017-09-17T00:34:39.154Z,7.5
2017-09-17T00:34:43.097Z,7.5
2017-09-17T00:34:47.164Z,7.5
2017-09-17T00:34:51.218Z,7.51
2017-09-17T00:34:55.276Z,7.51
2017-09-17T00:34:59.339Z,7.52
2017-09-17T00:35:03.532Z,7.51
2017-09-17T00:35:07.713Z,7.52
2017-09-17T00:35:11.777Z,7.52
2017-09-17T00:35:15.963Z,7.52
2017-09-17T00:35:20.149Z,7.53
2017-09-17T00:35:24.212Z,7.52
2017-09-17T00:35:28.277Z,7.53
2017-09-17T00:35:32.343Z,7.52
2017-09-17T00:35:36.398Z,7.52
2017-09-17T00:35:40.579Z,7.52
2017-09-17T00:35:44.512Z,7.53
2017-09-17T00:35:48.827Z,7.52
2017-09-17T00:35:52.637Z,7.53
2017-09-17T00:35:56.690Z,7.53
2017-09-17T00:36:00.622Z,7.53
2017-09-17T00:36:05.039Z,7.53
2017-09-17T00:36:09.097Z,7.53
2017-09-17T00:36:13.150Z,7.53
2017-09-17T00:36:17.343Z,7.53
2017-09-17T00:36:21.521Z,7.52
2017-09-17T00:36:25.580Z,7.53
2017-09-17T00:36:29.510Z,7.53
2017-09-17T00:36:33.821Z,7.54
2017-09-17T00:36:37.884Z,7.53
2017-09-17T00:36:41.946Z,7.54
2017-09-17T00:36:45.879Z,7.54
2017-09-17T00:36:49.562Z,7.54
2017-09-17T00:36:53.761Z,7.54
2017-09-17T00:36:57.698Z,7.54
2017-09-17T00:37:01.883Z,7.54
2017-09-17T00:37:06.295Z,7.54
2017-09-17T00:37:10.367Z,7.55
2017-09-17T00:37:14.326Z,7.54
2017-09-17T00:37:18.516Z,7.54
2017-09-17T00:37:22.695Z,7.54
2017-09-17T00:37:26.873Z,7.54
2017-09-17T00:37:30.932Z,7.55
2017-09-17T00:37:35.119Z,7.54
2017-09-17T00:37:39.056Z,7.54
2017-09-17T00:37:43.235Z,7.55
2017-09-17T00:37:47.171Z,7.55
2017-09-17T00:37:51.113Z,7.55
2017-09-17T00:37:55.415Z,7.55
2017-09-17T00:37:59.349Z,7.55
2017-09-17T00:38:03.566Z,7.55
2017-09-17T00:38:07.624Z,7.55
2017-09-17T00:38:11.804Z,7.55
2017-09-17T00:38:15.741Z,7.55
2017-09-17T00:38:19.931Z,7.55
2017-09-17T00:38:23.995Z,7.55
2017-09-17T00:38:28.182Z,7.55
2017-09-17T00:38:32.358Z,7.55
2017-09-17T00:38:36.298Z,7.55
2017-09-17T00:38:40.113Z,7.56
2017-09-17T00:38:44.050Z,7.55
2017-09-17T00:38:48.233Z,7.56
2017-09-17T00:38:52.167Z,7.56
2017-09-17T00:38:55.980Z,7.56
2017-09-17T00:39:00.163Z,7.56
2017-09-17T00:39:04.748Z,7.55
2017-09-17T00:39:09.191Z,7.56
2017-09-17T00:39:13.386Z,7.56
2017-09-17T00:39:17.319Z,7.57
2017-09-17T00:39:21.134Z,7.56
2017-09-17T00:39:25.198Z,7.57
2017-09-17T00:39:29.001Z,7.56
2017-09-17T00:39:33.436Z,7.57
2017-09-17T00:39:37.371Z,7.57
2017-09-17T00:39:41.558Z,7.57
2017-09-17T00:39:45.745Z,7.57
2017-09-17T00:39:49.802Z,7.58
2017-09-17T00:39:53.870Z,7.57
2017-09-17T00:39:57.928Z,7.57
2017-09-17T00:40:02.438Z,7.58
2017-09-17T00:40:06.372Z,7.58
2017-09-17T00:40:10.564Z,7.58
2017-09-17T00:40:14.879Z,7.59
2017-09-17T00:40:18.934Z,7.58
2017-09-17T00:40:22.989Z,7.57
2017-09-17T00:40:27.433Z,7.59
2017-09-17T00:40:31.492Z,7.59
2017-09-17T00:40:35.426Z,7.59
2017-09-17T00:40:39.490Z,7.59
2017-09-17T00:40:43.430Z,7.6
2017-09-17T00:40:47.747Z,7.6
2017-09-17T00:40:51.812Z,7.58
2017-09-17T00:40:55.994Z,7.59
2017-09-17T00:41:00.055Z,7.59
2017-09-17T00:41:04.445Z,7.6
2017-09-17T00:41:08.764Z,7.6
2017-09-17T00:41:12.947Z,7.6
2017-09-17T00:41:17.005Z,7.6
2017-09-17T00:41:20.939Z,7.6
2017-09-17T00:41:24.998Z,7.59
2017-09-17T00:41:29.054Z,7.6
2017-09-17T00:41:33.267Z,7.6
2017-09-17T00:41:37.052Z,7.6
2017-09-17T00:41:41.365Z,7.6
2017-09-17T00:41:45.554Z,7.6
2017-09-17T00:41:49.743Z,7.61
2017-09-17T00:41:53.671Z,7.6
2017-09-17T00:41:57.849Z,7.6
2017-09-17T00:42:02.087Z,7.61
2017-09-17T00:42:06.145Z,7.61
2017-09-17T00:42:10.203Z,7.61
2017-09-17T00:42:14.146Z,7.62
2017-09-17T00:42:18.455Z,7.61
2017-09-17T00:42:22.669Z,7.61
2017-09-17T00:42:26.604Z,7.61
2017-09-17T00:42:30.796Z,7.61
2017-09-17T00:42:34.978Z,7.62
2017-09-17T00:42:39.157Z,7.61
2017-09-17T00:42:43.215Z,7.62
2017-09-17T00:42:47.278Z,7.61
2017-09-17T00:42:51.234Z,7.61
2017-09-17T00:42:55.292Z,7.62
2017-09-17T00:42:59.348Z,7.62
2017-09-17T00:43:03.541Z,7.61
2017-09-17T00:43:07.604Z,7.61
2017-09-17T00:43:11.790Z,7.62
2017-09-17T00:43:15.728Z,7.61
2017-09-17T00:43:19.658Z,7.61
2017-09-17T00:43:23.720Z,7.61
2017-09-17T00:43:27.901Z,7.62
2017-09-17T00:43:31.828Z,7.62
2017-09-17T00:43:35.888Z,7.63
2017-09-17T00:43:40.093Z,7.61
2017-09-17T00:43:44.155Z,7.62
2017-09-17T00:43:48.341Z,7.63
2017-09-17T00:43:52.278Z,7.62
2017-09-17T00:43:56.335Z,7.62
2017-09-17T00:44:00.514Z,7.63
2017-09-17T00:44:05.110Z,7.63
2017-09-17T00:44:09.042Z,7.63
2017-09-17T00:44:12.978Z,7.63
2017-09-17T00:44:17.155Z,7.63
2017-09-17T00:44:21.461Z,7.63
2017-09-17T00:44:25.396Z,7.63
2017-09-17T00:44:29.208Z,7.63
2017-09-17T00:44:33.270Z,7.63
2017-09-17T00:44:37.327Z,7.64
2017-09-17T00:44:41.512Z,7.63
2017-09-17T00:44:45.831Z,7.63
2017-09-17T00:44:50.265Z,7.63
2017-09-17T00:44:54.326Z,7.64
2017-09-17T00:44:58.265Z,7.63
2017-09-17T00:45:02.669Z,7.64
2017-09-17T00:45:06.736Z,7.64
2017-09-17T00:45:10.799Z,7.64
2017-09-17T00:45:14.735Z,7.64
2017-09-17T00:45:18.785Z,7.64
2017-09-17T00:45:22.722Z,7.65
2017-09-17T00:45:26.531Z,7.65
2017-09-17T00:45:30.484Z,7.65
2017-09-17T00:45:34.539Z,7.65
2017-09-17T00:45:38.598Z,7.64
2017-09-17T00:45:42.660Z,7.65
2017-09-17T00:45:46.727Z,7.65
2017-09-17T00:45:50.412Z,7.65
2017-09-17T00:45:54.349Z,7.66
2017-09-17T00:45:58.292Z,7.65
2017-09-17T00:46:02.611Z,7.65
2017-09-17T00:46:06.672Z,7.65
2017-09-17T00:46:10.728Z,7.65
2017-09-17T00:46:14.786Z,7.66
2017-09-17T00:46:18.857Z,7.65
2017-09-17T00:46:23.050Z,7.65
2017-09-17T00:46:26.979Z,7.66
2017-09-17T00:46:31.173Z,7.67
2017-09-17T00:46:35.235Z,7.66
2017-09-17T00:46:39.293Z,7.67
2017-09-17T00:46:43.474Z,7.67
2017-09-17T00:46:47.658Z,7.68
2017-09-17T00:46:51.586Z,7.67
2017-09-17T00:46:55.778Z,7.67
2017-09-17T00:46:59.833Z,7.68
2017-09-17T00:47:04.025Z,7.67
2017-09-17T00:47:08.223Z,7.67
2017-09-17T00:47:12.153Z,7.67
2017-09-17T00:47:16.208Z,7.68
2017-09-17T00:47:20.649Z,7.68
2017-09-17T00:47:24.704Z,7.69
2017-09-17T00:47:28.894Z,7.68
2017-09-17T00:47:32.948Z,7.68
2017-09-17T00:47:37.260Z,7.68
2017-09-17T00:47:41.197Z,7.68
2017-09-17T00:47:45.260Z,7.69
2017-09-17T00:47:49.320Z,7.69
2017-09-17T00:47:53.636Z,7.68
2017-09-17T00:47:57.820Z,7.69
2017-09-17T00:48:02.001Z,7.69
2017-09-17T00:48:06.181Z,7.69
2017-09-17T00:48:10.370Z,7.69
2017-09-17T00:48:14.304Z,7.7
2017-09-17T00:48:18.239Z,7.69
2017-09-17T00:48:22.179Z,7.7
2017-09-17T00:48:26.122Z,7.69
2017-09-17T00:48:29.932Z,7.7
2017-09-17T00:48:34.237Z,7.7
2017-09-17T00:48:38.550Z,7.7
2017-09-17T00:48:42.612Z,7.7
2017-09-17T00:48:46.805Z,7.7
2017-09-17T00:48:50.988Z,7.71
2017-09-17T00:48:55.168Z,7.7
2017-09-17T00:48:59.265Z,7.71
2017-09-17T00:49:03.677Z,7.71
2017-09-17T00:49:07.860Z,7.71
2017-09-17T00:49:12.170Z,7.71
2017-09-17T00:49:16.104Z,7.72
2017-09-17T00:49:20.043Z,7.7
2017-09-17T00:49:24.225Z,7.72
2017-09-17T00:49:28.407Z,7.72
2017-09-17T00:49:32.340Z,7.72
2017-09-17T00:49:36.409Z,7.72
2017-09-17T00:49:40.845Z,7.73
2017-09-17T00:49:44.908Z,7.73
2017-09-17T00:49:48.972Z,7.72
2017-09-17T00:49:53.155Z,7.73
2017-09-17T00:49:57.337Z,7.73
2017-09-17T00:50:01.524Z,7.73
2017-09-17T00:50:05.587Z,7.73
2017-09-17T00:50:09.538Z,7.73
2017-09-17T00:50:13.717Z,7.74
2017-09-17T00:50:17.893Z,7.73
2017-09-17T00:50:21.823Z,7.75
2017-09-17T00:50:25.757Z,7.74
2017-09-17T00:50:29.687Z,7.74
2017-09-17T00:50:33.744Z,7.75
2017-09-17T00:50:37.802Z,7.75
2017-09-17T00:50:41.985Z,7.75
2017-09-17T00:50:46.296Z,7.75
2017-09-17T00:50:50.237Z,7.75
2017-09-17T00:50:54.430Z,7.75
2017-09-17T00:50:58.369Z,7.75
2017-09-17T00:51:02.585Z,7.76
2017-09-17T00:51:06.769Z,7.75
2017-09-17T00:51:10.959Z,7.76
2017-09-17T00:51:14.894Z,7.76
2017-09-17T00:51:18.829Z,7.76
2017-09-17T00:51:23.271Z,7.76
2017-09-17T00:51:27.457Z,7.76
2017-09-17T00:51:31.769Z,7.77
2017-09-17T00:51:35.701Z,7.77
2017-09-17T00:51:40.015Z,7.76
2017-09-17T00:51:43.951Z,7.77
2017-09-17T00:51:47.893Z,7.76
2017-09-17T00:51:52.078Z,7.77
2017-09-17T00:51:56.262Z,7.77
2017-09-17T00:52:00.325Z,7.78
2017-09-17T00:52:04.586Z,7.78
2017-09-17T00:52:08.516Z,7.78
2017-09-17T00:52:12.838Z,7.77
2017-09-17T00:52:17.029Z,7.78
2017-09-17T00:52:20.960Z,7.78
2017-09-17T00:52:25.145Z,7.78
2017-09-17T00:52:29.341Z,7.78
2017-09-17T00:52:33.407Z,7.78
2017-09-17T00:52:37.719Z,7.78
2017-09-17T00:52:42.025Z,7.79
2017-09-17T00:52:46.095Z,7.78
2017-09-17T00:52:50.280Z,7.79
2017-09-17T00:52:54.460Z,7.79
2017-09-17T00:52:58.648Z,7.79
2017-09-17T00:53:03.052Z,7.8
2017-09-17T00:53:06.869Z,7.79
2017-09-17T00:53:10.935Z,7.79
2017-09-17T00:53:15.367Z,7.8
2017-09-17T00:53:19.567Z,7.8
2017-09-17T00:53:23.373Z,7.8
2017-09-17T00:53:27.684Z,7.8
2017-09-17T00:53:31.623Z,7.8
2017-09-17T00:53:35.936Z,7.8
2017-09-17T00:53:39.874Z,7.8
2017-09-17T00:53:44.061Z,7.8
2017-09-17T00:53:48.386Z,7.8
2017-09-17T00:53:52.449Z,7.8
2017-09-17T00:53:56.637Z,7.8
2017-09-17T00:54:00.571Z,7.81
2017-09-17T00:54:04.931Z,7.81
2017-09-17T00:54:08.869Z,7.81
2017-09-17T00:54:12.804Z,7.81
2017-09-17T00:54:17.120Z,7.8
2017-09-17T00:54:21.188Z,7.81
2017-09-17T00:54:25.249Z,7.8
2017-09-17T00:54:29.312Z,7.81
2017-09-17T00:54:33.376Z,7.82
2017-09-17T00:54:37.316Z,7.81
2017-09-17T00:54:41.501Z,7.82
2017-09-17T00:54:45.821Z,7.81
2017-09-17T00:54:49.766Z,7.82
2017-09-17T00:54:53.832Z,7.81
2017-09-17T00:54:58.017Z,7.81
2017-09-17T00:55:01.826Z,7.81